createdAt,value
2016-10-08T00:00:34.101Z,0.00
2016-10-08T00:01:34.441Z,0.10
2016-10-08T00:02:34.957Z,0.20
2016-10-08T00:03:35.443Z,0.40
2016-10-08T00:04:36.104Z,0.70
2016-10-08T00:05:36.592Z,0.30
2016-10-08T00:06:36.956Z,0.40
2016-10-08T00:07:37.479Z,0.40
2016-10-08T00:08:37.956Z,0.40
2016-10-08T00:09:38.446Z,0.40
2016-10-08T00:10:38.970Z,0.10
2016-10-08T00:11:39.590Z,0.30
2016-10-08T00:12:40.094Z,0.80
2016-10-08T00:13:40.448Z,0.70
2016-10-08T00:14:41.114Z,0.30
2016-10-08T00:15:41.454Z,0.50
2016-10-08T00:16:42.097Z,0.30
2016-10-08T00:17:42.600Z,0.60
2016-10-08T00:18:43.118Z,0.50
2016-10-08T00:19:43.463Z,0.40
2016-10-08T00:20:44.110Z,0.70
2016-10-08T00:21:44.474Z,0.50
2016-10-08T00:22:44.966Z,0.50
2016-10-08T00:23:45.475Z,0.50
2016-10-08T00:24:45.977Z,0.80
2016-10-08T00:25:46.452Z,0.40
2016-10-08T00:26:47.100Z,0.30
2016-10-08T00:27:47.593Z,0.70
2016-10-08T00:28:47.948Z,0.90
2016-10-08T00:29:48.590Z,0.70
2016-10-08T00:30:48.957Z,0.60
2016-10-08T00:31:49.447Z,0.70
2016-10-08T00:32:49.942Z,0.50
2016-10-08T00:33:50.470Z,1.10
2016-10-08T00:34:50.976Z,1.10
2016-10-08T00:35:51.461Z,1.30
2016-10-08T00:36:51.965Z,0.70
2016-10-08T00:37:52.605Z,0.80
2016-10-08T00:38:53.111Z,0.90
2016-10-08T00:39:53.613Z,0.80
2016-10-08T00:40:53.988Z,0.80
2016-10-08T00:41:54.637Z,0.30
2016-10-08T00:42:54.975Z,0.50
2016-10-08T00:43:55.484Z,0.50
2016-10-08T00:44:55.969Z,0.80
2016-10-08T00:45:56.486Z,0.80
2016-10-08T00:46:56.972Z,0.40
2016-10-08T00:47:57.616Z,0.40
2016-10-08T00:48:58.126Z,0.50
2016-10-08T00:49:58.502Z,1.00
2016-10-08T00:50:58.981Z,0.40
2016-10-08T00:51:59.641Z,0.30
2016-10-08T00:53:00.025Z,0.10
2016-10-08T00:54:00.484Z,0.00
2016-10-08T00:55:00.968Z,0.00
2016-10-08T00:56:01.467Z,0.50
2016-10-08T00:57:01.970Z,0.00
2016-10-08T00:58:02.615Z,0.10
2016-10-08T00:59:02.981Z,0.40
2016-10-08T01:00:03.493Z,0.00
2016-10-08T01:01:04.130Z,0.00
2016-10-08T01:02:04.614Z,0.00
2016-10-08T01:03:04.967Z,0.10
2016-10-08T01:04:05.470Z,0.00
2016-10-08T01:05:05.992Z,0.00
2016-10-08T01:06:06.623Z,0.20
2016-10-08T01:07:06.978Z,0.00
2016-10-08T01:08:07.525Z,0.00
2016-10-08T01:09:07.993Z,0.00
2016-10-08T01:10:08.466Z,0.00
2016-10-08T01:11:09.116Z,0.20
2016-10-08T01:12:09.764Z,0.00
2016-10-08T01:13:10.116Z,0.00
2016-10-08T01:14:10.462Z,0.00
2016-10-08T01:15:10.967Z,0.00
2016-10-08T01:16:11.473Z,0.00
2016-10-08T01:17:11.999Z,0.30
2016-10-08T01:18:12.503Z,0.00
2016-10-08T01:19:12.976Z,0.00
2016-10-08T01:20:13.475Z,0.00
2016-10-08T01:21:13.985Z,0.00
2016-10-08T01:22:14.495Z,0.00
2016-10-08T01:23:14.985Z,0.00
2016-10-08T01:24:15.625Z,0.00
2016-10-08T01:25:15.983Z,0.00
2016-10-08T01:26:16.480Z,0.00
2016-10-08T01:27:16.975Z,0.00
2016-10-08T01:28:17.480Z,0.00
2016-10-08T01:29:18.130Z,0.30
2016-10-08T01:30:18.507Z,0.10
2016-10-08T01:31:18.984Z,0.50
2016-10-08T01:32:19.504Z,0.00
2016-10-08T01:33:20.145Z,0.00
2016-10-08T01:34:20.626Z,0.00
2016-10-08T01:35:20.996Z,0.00
2016-10-08T01:36:21.627Z,0.00
2016-10-08T01:37:22.131Z,0.00
2016-10-08T01:38:22.506Z,0.00
2016-10-08T01:39:22.977Z,0.00
2016-10-08T01:40:23.483Z,0.00
2016-10-08T01:41:23.977Z,0.00
2016-10-08T01:42:24.639Z,0.00
2016-10-08T01:43:25.005Z,0.00
2016-10-08T01:44:25.631Z,0.00
2016-10-08T01:45:26.137Z,0.00
2016-10-08T01:46:26.628Z,0.00
2016-10-08T01:47:26.987Z,0.00
2016-10-08T01:48:27.506Z,0.00
2016-10-08T01:49:27.992Z,0.10
2016-10-08T01:50:28.547Z,0.00
2016-10-08T01:51:29.138Z,0.10
2016-10-08T01:52:29.678Z,0.40
2016-10-08T01:53:30.139Z,0.50
2016-10-08T01:54:30.640Z,0.20
2016-10-08T01:55:31.145Z,0.10
2016-10-08T01:56:31.524Z,0.10
2016-10-08T01:57:32.026Z,0.00
2016-10-08T01:58:32.512Z,0.10
2016-10-08T01:59:33.012Z,0.00
2016-10-08T02:00:33.522Z,0.30
2016-10-08T02:01:34.165Z,0.00
2016-10-08T02:02:34.534Z,0.20
2016-10-08T02:03:35.011Z,0.00
2016-10-08T02:04:35.521Z,0.30
2016-10-08T02:05:35.998Z,0.30
2016-10-08T02:06:36.667Z,0.00
2016-10-08T02:07:37.000Z,0.20
2016-10-08T02:08:37.661Z,0.40
2016-10-08T02:09:38.009Z,0.20
2016-10-08T02:10:38.555Z,0.20
2016-10-08T02:11:39.014Z,0.10
2016-10-08T02:12:39.513Z,0.30
2016-10-08T02:13:40.149Z,0.50
2016-10-08T02:14:40.661Z,0.60
2016-10-08T02:15:41.010Z,0.60
2016-10-08T02:16:41.650Z,0.70
2016-10-08T02:17:42.033Z,0.50
2016-10-08T02:18:42.652Z,0.60
2016-10-08T02:19:43.027Z,0.50
2016-10-08T02:20:43.510Z,0.50
2016-10-08T02:21:44.010Z,0.50
2016-10-08T02:22:44.650Z,0.50
2016-10-08T02:23:45.004Z,0.70
2016-10-08T02:24:45.650Z,0.80
2016-10-08T02:25:46.003Z,0.90
2016-10-08T02:26:46.527Z,0.90
2016-10-08T02:27:47.159Z,1.10
2016-10-08T02:28:47.650Z,1.10
2016-10-08T02:29:48.024Z,1.60
2016-10-08T02:30:48.513Z,1.50
2016-10-08T02:31:49.152Z,1.50
2016-10-08T02:32:49.520Z,1.10
2016-10-08T02:33:50.048Z,1.20
2016-10-08T02:34:50.533Z,1.20
2016-10-08T02:35:51.043Z,0.80
2016-10-08T02:36:51.520Z,0.90
2016-10-08T02:37:52.054Z,0.80
2016-10-08T02:38:52.683Z,0.80
2016-10-08T02:39:53.016Z,1.20
2016-10-08T02:40:53.661Z,1.10
2016-10-08T02:41:54.053Z,1.10
2016-10-08T02:42:54.516Z,0.60
2016-10-08T02:43:55.045Z,0.30
2016-10-08T02:44:55.688Z,0.70
2016-10-08T02:45:56.018Z,0.80
2016-10-08T02:46:56.680Z,0.40
2016-10-08T02:47:57.017Z,1.10
2016-10-08T02:48:57.572Z,0.80
2016-10-08T02:49:58.028Z,0.90
2016-10-08T02:50:58.516Z,0.70
2016-10-08T02:51:59.037Z,0.70
2016-10-08T02:52:59.518Z,0.50
2016-10-08T02:54:00.040Z,0.50
2016-10-08T02:55:00.514Z,0.20
2016-10-08T02:56:01.039Z,0.10
2016-10-08T02:57:01.506Z,0.30
2016-10-08T02:58:02.033Z,0.50
2016-10-08T02:59:02.653Z,0.50
2016-10-08T03:00:03.021Z,0.60
2016-10-08T03:01:03.510Z,0.50
2016-10-08T03:02:04.022Z,0.30
2016-10-08T03:03:04.655Z,0.30
2016-10-08T03:04:05.012Z,0.40
2016-10-08T03:05:05.510Z,0.30
2016-10-08T03:06:06.009Z,0.00
2016-10-08T03:07:06.652Z,0.10
2016-10-08T03:08:07.018Z,0.00
2016-10-08T03:09:07.543Z,0.30
2016-10-08T03:10:08.159Z,0.00
2016-10-08T03:11:08.523Z,0.10
2016-10-08T03:12:09.025Z,0.10
2016-10-08T03:13:09.677Z,0.00
2016-10-08T03:14:10.067Z,0.10
2016-10-08T03:15:10.541Z,0.10
2016-10-08T03:16:11.201Z,0.00
2016-10-08T03:17:11.528Z,0.20
2016-10-08T03:18:12.024Z,0.40
2016-10-08T03:19:12.518Z,0.40
2016-10-08T03:20:13.186Z,0.50
2016-10-08T03:21:13.516Z,0.40
2016-10-08T03:22:14.030Z,0.10
2016-10-08T03:23:14.526Z,0.40
2016-10-08T03:24:15.163Z,0.30
2016-10-08T03:25:15.510Z,0.30
2016-10-08T03:26:16.006Z,0.00
2016-10-08T03:27:16.521Z,0.40
2016-10-08T03:28:17.018Z,0.00
2016-10-08T03:29:17.665Z,0.00
2016-10-08T03:30:18.164Z,0.00
2016-10-08T03:31:18.526Z,0.30
2016-10-08T03:32:19.068Z,0.30
2016-10-08T03:33:19.564Z,0.10
2016-10-08T03:34:20.009Z,0.10
2016-10-08T03:35:20.677Z,0.10
2016-10-08T03:36:21.160Z,0.10
2016-10-08T03:37:21.517Z,0.20
2016-10-08T03:38:22.013Z,0.00
2016-10-08T03:39:22.656Z,0.00
2016-10-08T03:40:23.162Z,0.00
2016-10-08T03:41:23.534Z,0.00
2016-10-08T03:42:24.057Z,0.00
2016-10-08T03:43:24.534Z,0.00
2016-10-08T03:44:25.172Z,0.00
2016-10-08T03:45:25.526Z,0.00
2016-10-08T03:46:26.180Z,0.00
2016-10-08T03:47:26.561Z,0.00
2016-10-08T03:48:27.163Z,0.00
2016-10-08T03:49:27.664Z,0.00
2016-10-08T03:50:28.169Z,0.00
2016-10-08T03:51:28.533Z,0.00
2016-10-08T03:52:29.178Z,0.00
2016-10-08T03:53:29.669Z,0.00
2016-10-08T03:54:30.175Z,0.00
2016-10-08T03:55:30.675Z,0.00
2016-10-08T03:56:31.035Z,0.00
2016-10-08T03:57:31.828Z,0.00
2016-10-08T03:58:32.049Z,0.00
2016-10-08T03:59:32.550Z,0.00
2016-10-08T04:00:33.041Z,0.00
2016-10-08T04:01:33.532Z,0.00
2016-10-08T04:02:34.044Z,0.00
2016-10-08T04:03:34.672Z,0.00
2016-10-08T04:04:35.056Z,0.00
2016-10-08T04:05:35.529Z,0.00
2016-10-08T04:06:36.180Z,0.00
2016-10-08T04:07:36.673Z,0.00
2016-10-08T04:08:37.053Z,0.00
2016-10-08T04:09:37.532Z,0.00
2016-10-08T04:10:38.046Z,0.00
2016-10-08T04:11:38.707Z,0.00
2016-10-08T04:12:39.058Z,0.00
2016-10-08T04:13:39.528Z,0.00
2016-10-08T04:14:40.051Z,0.00
2016-10-08T04:15:40.676Z,0.00
2016-10-08T04:16:41.056Z,0.00
2016-10-08T04:17:41.675Z,0.00
2016-10-08T04:18:42.033Z,0.00
2016-10-08T04:19:42.677Z,0.00
2016-10-08T04:20:43.028Z,0.00
2016-10-08T04:21:43.682Z,0.00
2016-10-08T04:22:44.182Z,0.00
2016-10-08T04:23:44.529Z,0.00
2016-10-08T04:24:45.039Z,0.00
2016-10-08T04:25:45.529Z,0.00
2016-10-08T04:26:46.032Z,0.00
2016-10-08T04:27:46.688Z,0.00
2016-10-08T04:28:47.195Z,0.00
2016-10-08T04:29:47.686Z,0.00
2016-10-08T04:30:48.043Z,0.00
2016-10-08T04:31:48.541Z,0.00
2016-10-08T04:32:49.075Z,0.00
2016-10-08T04:33:49.539Z,0.00
2016-10-08T04:34:50.045Z,0.00
2016-10-08T04:35:50.542Z,0.00
2016-10-08T04:36:51.053Z,0.00
2016-10-08T04:37:51.557Z,0.00
2016-10-08T04:38:52.088Z,0.00
2016-10-08T04:39:52.559Z,0.00
2016-10-08T04:40:53.192Z,0.10
2016-10-08T04:41:53.536Z,0.00
2016-10-08T04:42:54.039Z,0.00
2016-10-08T04:43:54.562Z,0.00
2016-10-08T04:44:55.045Z,0.00
2016-10-08T04:45:55.541Z,0.00
2016-10-08T04:46:56.079Z,0.00
2016-10-08T04:47:56.683Z,0.00
2016-10-08T04:48:57.040Z,0.00
2016-10-08T04:49:57.691Z,0.00
2016-10-08T04:50:58.076Z,0.00
2016-10-08T04:51:58.602Z,0.00
2016-10-08T04:52:59.094Z,0.00
2016-10-08T04:53:59.641Z,0.00
2016-10-08T04:55:00.279Z,0.00
2016-10-08T04:56:00.791Z,0.00
2016-10-08T04:57:01.177Z,0.00
2016-10-08T04:58:01.679Z,0.00
2016-10-08T04:59:02.341Z,0.00
2016-10-08T05:00:02.708Z,0.00
2016-10-08T05:01:03.252Z,0.00
2016-10-08T05:02:03.853Z,0.00
2016-10-08T05:03:04.273Z,0.00
2016-10-08T05:04:04.863Z,0.00
2016-10-08T05:05:05.238Z,0.00
2016-10-08T05:06:05.891Z,0.00
2016-10-08T05:07:06.231Z,0.00
2016-10-08T05:08:06.732Z,0.00
2016-10-08T05:09:07.249Z,0.00
2016-10-08T05:11:08.248Z,0.00
2016-10-08T05:12:08.752Z,0.00
2016-10-08T05:13:09.236Z,0.00
2016-10-08T05:14:09.880Z,0.00
2016-10-08T05:15:10.408Z,0.00
2016-10-08T05:16:10.757Z,0.00
2016-10-08T05:17:11.251Z,0.00
2016-10-08T05:18:11.761Z,0.00
2016-10-08T05:19:12.256Z,0.00
2016-10-08T05:20:12.894Z,0.00
2016-10-08T05:21:13.277Z,0.00
2016-10-08T05:22:13.895Z,0.00
2016-10-08T05:23:14.285Z,0.00
2016-10-08T05:24:14.766Z,0.00
2016-10-08T05:25:15.252Z,0.00
2016-10-08T05:26:15.751Z,0.00
2016-10-08T05:27:16.265Z,0.00
2016-10-08T05:28:16.769Z,0.00
2016-10-08T05:29:17.259Z,0.00
2016-10-08T05:30:17.760Z,0.00
2016-10-08T05:31:18.266Z,0.00
2016-10-08T05:32:18.755Z,0.00
2016-10-08T05:33:19.419Z,0.00
2016-10-08T05:34:19.906Z,0.00
2016-10-08T05:35:20.256Z,0.00
2016-10-08T05:36:20.771Z,0.00
2016-10-08T05:37:21.262Z,0.00
2016-10-08T05:38:21.928Z,0.00
2016-10-08T05:39:22.431Z,0.00
2016-10-08T05:40:22.784Z,0.00
2016-10-08T05:41:23.274Z,0.00
2016-10-08T05:42:23.792Z,0.00
2016-10-08T05:43:24.428Z,0.00
2016-10-08T05:44:24.933Z,0.00
2016-10-08T05:45:25.443Z,0.00
2016-10-08T05:46:25.804Z,0.00
2016-10-08T05:47:26.293Z,0.00
2016-10-08T05:48:26.942Z,0.00
2016-10-08T05:49:27.442Z,0.00
2016-10-08T05:50:27.806Z,0.00
2016-10-08T05:51:28.310Z,0.00
2016-10-08T05:52:28.806Z,0.00
2016-10-08T05:53:29.318Z,0.00
2016-10-08T05:54:29.803Z,0.00
2016-10-08T05:55:30.447Z,0.00
2016-10-08T05:56:30.828Z,0.00
2016-10-08T05:57:31.328Z,0.00
2016-10-08T05:58:31.825Z,0.00
2016-10-08T05:59:32.317Z,0.00
2016-10-08T06:00:32.960Z,0.00
2016-10-08T06:01:33.457Z,0.00
2016-10-08T06:02:33.813Z,0.00
2016-10-08T06:03:34.316Z,0.00
2016-10-08T06:04:34.861Z,0.00
2016-10-08T06:05:35.309Z,0.00
2016-10-08T06:06:35.816Z,0.00
2016-10-08T06:07:36.324Z,0.00
2016-10-08T06:08:36.829Z,0.00
2016-10-08T06:09:37.467Z,0.00
2016-10-08T06:10:37.817Z,0.00
2016-10-08T06:11:38.317Z,0.00
2016-10-08T06:12:38.868Z,0.00
2016-10-08T06:13:39.322Z,0.00
2016-10-08T06:14:39.970Z,0.00
2016-10-08T06:15:40.373Z,0.00
2016-10-08T06:16:40.978Z,0.00
2016-10-08T06:17:41.336Z,0.00
2016-10-08T06:18:41.843Z,0.00
2016-10-08T06:19:42.350Z,0.00
2016-10-08T06:20:42.994Z,0.00
2016-10-08T06:21:43.501Z,0.00
2016-10-08T06:22:43.879Z,0.00
2016-10-08T06:23:44.511Z,0.00
2016-10-08T06:24:45.026Z,0.00
2016-10-08T06:25:45.358Z,0.00
2016-10-08T06:26:45.864Z,0.00
2016-10-08T06:27:46.509Z,0.00
2016-10-08T06:28:46.868Z,0.00
2016-10-08T06:29:47.372Z,0.00
2016-10-08T06:30:47.904Z,0.00
2016-10-08T06:31:48.393Z,0.00
2016-10-08T06:32:48.889Z,0.00
2016-10-08T06:33:49.543Z,0.00
2016-10-08T06:34:49.877Z,0.00
2016-10-08T06:35:50.375Z,0.00
2016-10-08T06:36:50.880Z,0.00
2016-10-08T06:37:51.383Z,0.00
2016-10-08T06:38:51.904Z,0.00
2016-10-08T06:39:52.399Z,0.00
2016-10-08T06:40:52.878Z,0.00
2016-10-08T06:41:53.380Z,0.00
2016-10-08T06:42:53.887Z,0.00
2016-10-08T06:43:54.532Z,0.00
2016-10-08T06:44:55.030Z,0.00
2016-10-08T06:45:55.398Z,0.00
2016-10-08T06:46:55.884Z,0.00
2016-10-08T06:47:56.429Z,0.00
2016-10-08T06:48:56.895Z,0.00
2016-10-08T06:49:57.418Z,0.00
2016-10-08T06:50:57.884Z,0.00
2016-10-08T06:51:58.420Z,0.00
2016-10-08T06:52:58.895Z,0.00
2016-10-08T06:53:59.393Z,0.00
2016-10-08T06:54:59.902Z,0.00
2016-10-08T06:56:00.398Z,0.00
2016-10-08T06:57:00.900Z,0.00
2016-10-08T06:58:01.404Z,0.00
2016-10-08T06:59:01.911Z,0.00
2016-10-08T07:00:02.440Z,0.00
2016-10-08T07:01:03.052Z,0.00
2016-10-08T07:02:03.422Z,0.00
2016-10-08T07:03:03.920Z,0.00
2016-10-08T07:04:04.403Z,0.00
2016-10-08T07:05:05.066Z,0.00
2016-10-08T07:06:05.402Z,0.00
2016-10-08T07:07:06.052Z,0.00
2016-10-08T07:08:06.551Z,0.00
2016-10-08T07:09:07.049Z,0.00
2016-10-08T07:10:07.552Z,0.00
2016-10-08T07:11:08.066Z,0.00
2016-10-08T07:12:08.403Z,0.00
2016-10-08T07:13:08.906Z,0.00
2016-10-08T07:14:09.409Z,0.00
2016-10-08T07:15:09.932Z,0.00
2016-10-08T07:16:10.402Z,0.00
2016-10-08T07:17:10.910Z,0.00
2016-10-08T07:18:11.552Z,0.00
2016-10-08T07:19:12.052Z,0.00
2016-10-08T07:20:12.403Z,0.00
2016-10-08T07:21:12.908Z,0.00
2016-10-08T07:22:13.427Z,0.00
2016-10-08T07:23:14.059Z,0.00
2016-10-08T07:24:14.404Z,0.00
2016-10-08T07:25:14.905Z,0.00
2016-10-08T07:26:15.420Z,0.00
2016-10-08T07:27:15.933Z,0.00
2016-10-08T07:28:16.412Z,0.00
2016-10-08T07:29:16.912Z,0.00
2016-10-08T07:30:17.553Z,0.00
2016-10-08T07:31:18.090Z,0.00
2016-10-08T07:32:18.418Z,0.00
2016-10-08T07:33:19.056Z,0.00
2016-10-08T07:34:19.551Z,0.00
2016-10-08T07:35:19.916Z,0.00
2016-10-08T07:36:20.422Z,0.00
2016-10-08T07:37:21.069Z,0.00
2016-10-08T07:38:21.440Z,0.00
2016-10-08T07:39:22.058Z,0.00
2016-10-08T07:40:22.560Z,0.00
2016-10-08T07:41:22.914Z,0.00
2016-10-08T07:42:23.454Z,0.50
2016-10-08T07:43:24.061Z,0.40
2016-10-08T07:44:24.558Z,0.50
2016-10-08T07:45:24.931Z,0.40
2016-10-08T07:46:25.432Z,0.30
2016-10-08T07:47:26.056Z,0.30
2016-10-08T07:48:26.568Z,1.00
2016-10-08T07:49:27.058Z,0.70
2016-10-08T07:50:27.405Z,0.30
2016-10-08T07:51:28.056Z,0.50
2016-10-08T07:52:28.561Z,1.40
2016-10-08T07:53:29.075Z,1.30
2016-10-08T07:54:29.416Z,0.90
2016-10-08T07:55:29.916Z,0.70
2016-10-08T07:56:30.574Z,0.70
2016-10-08T07:57:30.917Z,0.50
2016-10-08T07:58:31.556Z,1.10
2016-10-08T07:59:31.917Z,1.30
2016-10-08T08:00:32.574Z,1.60
2016-10-08T08:01:32.916Z,1.00
2016-10-08T08:02:33.436Z,0.80
2016-10-08T08:03:33.920Z,0.60
2016-10-08T08:04:34.557Z,1.40
2016-10-08T08:05:34.906Z,1.60
2016-10-08T08:06:35.415Z,0.70
2016-10-08T08:07:36.071Z,1.50
2016-10-08T08:08:36.575Z,2.80
2016-10-08T08:09:36.902Z,1.80
2016-10-08T08:10:37.563Z,0.70
2016-10-08T08:11:37.909Z,0.70
2016-10-08T08:12:38.588Z,1.80
2016-10-08T08:13:39.055Z,1.80
2016-10-08T08:14:39.560Z,1.30
2016-10-08T08:15:39.932Z,1.00
2016-10-08T08:16:40.454Z,1.00
2016-10-08T08:17:41.074Z,0.60
2016-10-08T08:18:41.447Z,1.10
2016-10-08T08:19:41.933Z,1.10
2016-10-08T08:20:42.477Z,1.50
2016-10-08T08:21:42.927Z,2.90
2016-10-08T08:22:43.592Z,1.60
2016-10-08T08:23:43.928Z,2.10
2016-10-08T08:24:44.442Z,2.50
2016-10-08T08:25:44.937Z,2.50
2016-10-08T08:26:45.427Z,2.50
2016-10-08T08:27:45.943Z,2.60
2016-10-08T08:28:46.434Z,2.40
2016-10-08T08:29:46.932Z,1.90
2016-10-08T08:30:47.586Z,1.60
2016-10-08T08:31:47.920Z,1.30
2016-10-08T08:32:48.442Z,1.60
2016-10-08T08:33:49.072Z,1.80
2016-10-08T08:34:49.428Z,1.90
2016-10-08T08:35:50.072Z,1.40
2016-10-08T08:36:50.458Z,1.30
2016-10-08T08:37:51.083Z,1.50
2016-10-08T08:38:51.437Z,2.20
2016-10-08T08:39:51.949Z,1.90
2016-10-08T08:40:52.453Z,1.50
2016-10-08T08:41:52.924Z,1.30
2016-10-08T08:42:53.597Z,1.80
2016-10-08T08:43:53.936Z,1.30
2016-10-08T08:44:54.446Z,2.20
2016-10-08T08:45:54.958Z,2.00
2016-10-08T08:46:55.513Z,2.00
2016-10-08T08:47:55.998Z,2.20
2016-10-08T08:48:56.507Z,1.80
2016-10-08T08:49:57.017Z,1.70
2016-10-08T08:50:57.531Z,1.70
2016-10-08T08:51:58.076Z,2.10
2016-10-08T08:52:58.562Z,2.30
2016-10-08T08:53:59.079Z,2.20
2016-10-08T08:54:59.749Z,1.10
2016-10-08T08:56:00.117Z,1.40
2016-10-08T08:57:00.636Z,0.80
2016-10-08T08:58:01.141Z,0.80
2016-10-08T08:59:01.685Z,0.80
2016-10-08T09:00:02.170Z,0.40
2016-10-08T09:01:02.682Z,0.40
2016-10-08T09:02:03.205Z,0.70
2016-10-08T09:03:03.854Z,0.60
2016-10-08T09:04:04.352Z,0.30
2016-10-08T09:05:04.738Z,1.40
2016-10-08T09:06:05.212Z,0.40
2016-10-08T09:07:05.865Z,0.00
2016-10-08T09:08:06.236Z,0.50
2016-10-08T09:09:06.739Z,0.50
2016-10-08T09:10:07.244Z,0.20
2016-10-08T09:11:07.745Z,0.50
2016-10-08T09:12:08.393Z,0.60
2016-10-08T09:13:08.757Z,0.60
2016-10-08T09:14:09.400Z,0.40
2016-10-08T09:15:09.909Z,1.20
2016-10-08T09:16:10.276Z,1.00
2016-10-08T09:17:10.774Z,1.30
2016-10-08T09:18:11.423Z,1.00
2016-10-08T09:19:11.781Z,1.00
2016-10-08T09:20:12.424Z,1.10
2016-10-08T09:21:12.937Z,1.70
2016-10-08T09:22:13.305Z,1.70
2016-10-08T09:23:13.794Z,1.70
2016-10-08T09:24:14.445Z,1.60
2016-10-08T09:25:14.820Z,1.20
2016-10-08T09:26:15.325Z,0.70
2016-10-08T09:27:15.963Z,0.50
2016-10-08T09:28:16.325Z,0.60
2016-10-08T09:29:16.823Z,0.80
2016-10-08T09:30:17.331Z,1.40
2016-10-08T09:31:17.829Z,0.40
2016-10-08T09:32:18.337Z,1.70
2016-10-08T09:33:18.992Z,1.80
2016-10-08T09:34:19.352Z,0.60
2016-10-08T09:35:19.862Z,1.20
2016-10-08T09:36:20.372Z,1.60
2016-10-08T09:37:21.022Z,1.90
2016-10-08T09:38:21.394Z,1.40
2016-10-08T09:39:21.895Z,0.90
2016-10-08T09:40:22.538Z,1.60
2016-10-08T09:41:22.900Z,1.50
2016-10-08T09:42:23.540Z,1.00
2016-10-08T09:43:23.934Z,1.30
2016-10-08T09:44:24.422Z,1.00
2016-10-08T09:45:24.917Z,1.50
2016-10-08T09:46:25.440Z,1.40
2016-10-08T09:47:26.063Z,1.40
2016-10-08T09:48:26.447Z,1.30
2016-10-08T09:49:26.922Z,0.80
2016-10-08T09:50:27.573Z,1.10
2016-10-08T09:51:27.937Z,1.10
2016-10-08T09:52:28.450Z,1.10
2016-10-08T09:53:28.953Z,0.80
2016-10-08T09:54:29.592Z,1.20
2016-10-08T09:55:29.964Z,1.20
2016-10-08T09:56:30.599Z,1.50
2016-10-08T09:57:30.955Z,1.70
2016-10-08T09:58:31.460Z,1.30
2016-10-08T09:59:32.115Z,0.70
2016-10-08T10:00:32.617Z,0.90
2016-10-08T10:01:33.014Z,1.00
2016-10-08T10:02:33.481Z,1.00
2016-10-08T10:03:34.140Z,0.30
2016-10-08T10:04:34.641Z,0.60
2016-10-08T10:05:35.007Z,0.80
2016-10-08T10:06:35.502Z,0.80
2016-10-08T10:07:36.153Z,0.90
2016-10-08T10:08:36.513Z,0.80
2016-10-08T10:09:37.023Z,0.70
2016-10-08T10:10:37.528Z,0.80
2016-10-08T10:11:38.184Z,1.40
2016-10-08T10:12:38.540Z,1.50
2016-10-08T10:13:39.073Z,1.10
2016-10-08T10:14:39.557Z,1.50
2016-10-08T10:15:40.079Z,1.30
2016-10-08T10:16:40.707Z,0.40
2016-10-08T10:17:41.074Z,0.40
2016-10-08T10:18:41.571Z,0.40
2016-10-08T10:19:42.222Z,0.60
2016-10-08T10:20:42.722Z,0.30
2016-10-08T10:21:43.113Z,0.60
2016-10-08T10:22:43.588Z,0.90
2016-10-08T10:23:44.239Z,0.80
2016-10-08T10:24:44.606Z,0.70
2016-10-08T10:25:45.249Z,0.70
2016-10-08T10:26:45.617Z,1.50
2016-10-08T10:27:46.114Z,1.30
2016-10-08T10:28:46.767Z,0.50
2016-10-08T10:29:47.126Z,0.40
2016-10-08T10:30:47.637Z,1.00
2016-10-08T10:31:48.150Z,0.80
2016-10-08T10:32:48.637Z,0.10
2016-10-08T10:33:49.148Z,0.00
2016-10-08T10:34:49.650Z,0.10
2016-10-08T10:35:50.174Z,0.00
2016-10-08T10:36:50.786Z,0.10
2016-10-08T10:37:51.151Z,0.00
2016-10-08T10:38:51.660Z,0.30
2016-10-08T10:39:52.159Z,0.30
2016-10-08T10:40:52.684Z,0.30
2016-10-08T10:41:53.163Z,0.50
2016-10-08T10:42:53.689Z,0.70
2016-10-08T10:43:54.324Z,0.80
2016-10-08T10:44:54.693Z,0.50
2016-10-08T10:45:55.212Z,0.30
2016-10-08T10:46:55.689Z,0.10
2016-10-08T10:47:56.210Z,0.30
2016-10-08T10:48:56.713Z,0.10
2016-10-08T10:49:57.238Z,0.50
2016-10-08T10:50:57.867Z,0.40
2016-10-08T10:51:58.234Z,0.60
2016-10-08T10:52:58.881Z,0.40
2016-10-08T10:53:59.383Z,0.40
2016-10-08T10:54:59.765Z,1.10
2016-10-08T10:56:00.396Z,1.30
2016-10-08T10:57:00.751Z,1.50
2016-10-08T10:58:01.296Z,0.90
2016-10-08T10:59:01.904Z,1.20
2016-10-08T11:00:02.271Z,0.80
2016-10-08T11:01:02.924Z,0.70
2016-10-08T11:02:03.420Z,1.00
2016-10-08T11:03:03.921Z,1.00
2016-10-08T11:04:04.281Z,1.80
2016-10-08T11:05:04.933Z,0.70
2016-10-08T11:06:05.437Z,0.70
2016-10-08T11:07:05.799Z,0.60
2016-10-08T11:08:06.301Z,0.80
2016-10-08T11:09:06.805Z,0.50
2016-10-08T11:10:07.305Z,0.40
2016-10-08T11:11:07.821Z,0.80
2016-10-08T11:12:08.340Z,0.90
2016-10-08T11:13:08.820Z,0.90
2016-10-08T11:14:09.474Z,0.40
2016-10-08T11:15:09.861Z,0.30
2016-10-08T11:16:10.330Z,1.10
2016-10-08T11:17:10.864Z,0.40
2016-10-08T11:18:11.374Z,0.40
2016-10-08T11:19:11.844Z,0.80
2016-10-08T11:20:12.350Z,1.00
2016-10-08T11:21:12.844Z,1.00
2016-10-08T11:22:13.498Z,0.60
2016-10-08T11:23:13.879Z,1.20
2016-10-08T11:24:14.364Z,1.20
2016-10-08T11:25:14.876Z,0.90
2016-10-08T11:26:15.526Z,0.00
2016-10-08T11:27:15.885Z,0.20
2016-10-08T11:28:16.539Z,0.60
2016-10-08T11:29:17.043Z,0.70
2016-10-08T11:30:17.547Z,1.30
2016-10-08T11:31:17.904Z,1.60
2016-10-08T11:32:18.413Z,1.50
2016-10-08T11:33:19.057Z,1.00
2016-10-08T11:34:19.564Z,1.10
2016-10-08T11:35:19.918Z,1.20
2016-10-08T11:36:20.427Z,1.40
2016-10-08T11:37:20.926Z,0.90
2016-10-08T11:38:21.442Z,1.50
2016-10-08T11:39:22.080Z,1.70
2016-10-08T11:40:22.584Z,1.00
2016-10-08T11:41:23.085Z,0.90
2016-10-08T11:42:23.464Z,0.90
2016-10-08T11:43:24.090Z,0.90
2016-10-08T11:44:24.446Z,1.10
2016-10-08T11:45:24.988Z,1.10
2016-10-08T11:46:25.482Z,0.80
2016-10-08T11:47:25.962Z,0.90
2016-10-08T11:48:26.483Z,1.10
2016-10-08T11:49:27.114Z,1.30
2016-10-08T11:50:27.510Z,0.80
2016-10-08T11:51:28.124Z,0.70
2016-10-08T11:52:28.476Z,0.30
2016-10-08T11:53:28.996Z,0.70
2016-10-08T11:54:29.500Z,0.30
2016-10-08T11:55:30.134Z,0.70
2016-10-08T11:56:30.519Z,0.70
2016-10-08T11:57:31.008Z,0.60
2016-10-08T11:58:31.534Z,0.70
2016-10-08T11:59:32.014Z,0.90
2016-10-08T12:00:32.663Z,0.40
2016-10-08T12:01:33.164Z,0.70
2016-10-08T12:02:33.560Z,0.80
2016-10-08T12:03:34.045Z,0.20
2016-10-08T12:04:34.547Z,0.20
2016-10-08T12:05:35.053Z,0.10
2016-10-08T12:06:35.565Z,0.10
2016-10-08T12:07:36.076Z,0.10
2016-10-08T12:08:36.574Z,0.00
2016-10-08T12:09:37.110Z,0.00
2016-10-08T12:10:37.579Z,0.90
2016-10-08T12:11:38.100Z,0.60
2016-10-08T12:12:38.600Z,0.30
2016-10-08T12:13:39.104Z,0.50
2016-10-08T12:14:39.743Z,0.10
2016-10-08T12:15:40.108Z,1.00
2016-10-08T12:16:40.599Z,0.80
2016-10-08T12:17:41.119Z,1.10
2016-10-08T12:18:41.637Z,1.20
2016-10-08T12:19:42.129Z,1.10
2016-10-08T12:20:42.766Z,1.00
2016-10-08T12:21:43.266Z,1.10
2016-10-08T12:22:43.772Z,1.70
2016-10-08T12:23:44.151Z,2.00
2016-10-08T12:24:44.637Z,1.80
2016-10-08T12:25:45.282Z,1.20
2016-10-08T12:26:45.666Z,0.80
2016-10-08T12:27:46.161Z,1.20
2016-10-08T12:28:46.673Z,0.80
2016-10-08T12:29:47.302Z,0.50
2016-10-08T12:30:47.657Z,0.50
2016-10-08T12:31:48.160Z,0.40
2016-10-08T12:32:48.695Z,0.30
2016-10-08T12:33:49.168Z,0.90
2016-10-08T12:34:49.822Z,1.30
2016-10-08T12:35:50.191Z,0.20
2016-10-08T12:36:50.695Z,1.40
2016-10-08T12:37:51.192Z,0.80
2016-10-08T12:38:51.837Z,1.30
2016-10-08T12:39:52.193Z,1.10
2016-10-08T12:40:52.699Z,0.90
2016-10-08T12:41:53.211Z,0.60
2016-10-08T12:42:53.754Z,0.40
2016-10-08T12:43:54.264Z,0.50
2016-10-08T12:44:54.732Z,0.70
2016-10-08T12:45:55.264Z,0.90
2016-10-08T12:46:55.728Z,0.80
2016-10-08T12:47:56.244Z,0.30
2016-10-08T12:48:56.749Z,0.30
2016-10-08T12:49:57.252Z,0.60
2016-10-08T12:50:57.783Z,0.70
2016-10-08T12:51:58.266Z,0.80
2016-10-08T12:52:58.903Z,0.40
2016-10-08T12:53:59.259Z,0.50
2016-10-08T12:54:59.771Z,0.10
2016-10-08T12:56:00.411Z,0.60
2016-10-08T12:57:00.807Z,0.40
2016-10-08T12:58:01.303Z,0.80
2016-10-08T12:59:01.925Z,0.50
2016-10-08T13:00:02.425Z,0.50
2016-10-08T13:01:02.930Z,0.60
2016-10-08T13:02:03.297Z,0.30
2016-10-08T13:03:03.935Z,0.90
2016-10-08T13:04:04.437Z,0.60
2016-10-08T13:05:04.798Z,0.20
2016-10-08T13:06:05.301Z,0.20
2016-10-08T13:07:06.097Z,0.40
2016-10-08T13:08:06.329Z,0.40
2016-10-08T13:09:06.960Z,0.20
2016-10-08T13:10:07.341Z,0.30
2016-10-08T13:11:07.824Z,0.40
2016-10-08T13:12:08.325Z,0.20
2016-10-08T13:13:08.832Z,0.70
2016-10-08T13:14:09.352Z,0.30
2016-10-08T13:15:09.886Z,0.40
2016-10-08T13:16:10.491Z,0.20
2016-10-08T13:17:10.885Z,0.40
2016-10-08T13:18:11.367Z,0.20
2016-10-08T13:19:12.013Z,0.10
2016-10-08T13:20:12.520Z,0.90
2016-10-08T13:21:12.904Z,1.00
2016-10-08T13:22:13.394Z,0.80
2016-10-08T13:23:13.900Z,1.00
2016-10-08T13:24:14.413Z,1.00
2016-10-08T13:25:14.925Z,0.90
2016-10-08T13:26:15.549Z,0.80